Time;durP1;ratioP1;P1;durP2;ratioP2;P2;SDS_P1;SDS_P2;PMS_P1;PMS_P2;Temp;Humidity;BMP_temperature;BMP_pressure;BME280_temperature;BME280_humidity;BME280_pressure;Samples;Min_cycle;Max_cycle;Signal;HPM_P1;HPM_P2
2022/10/15 00:01:43;;;;;;;72.97;40.50;;;8.30;99.90;;;;;;5096778;28;20442;-64
2022/10/15 00:04:09;;;;;;;67.88;38.63;;;8.30;99.90;;;;;;5096986;28;20358;-64
2022/10/15 00:06:35;;;;;;;70.32;39.03;;;8.20;99.90;;;;;;5097060;28;20064;-64
2022/10/15 00:09:01;;;;;;;80.22;42.05;;;8.20;99.90;;;;;;5096866;28;20024;-64
2022/10/15 00:11:28;;;;;;;72.13;41.25;;;8.20;99.90;;;;;;5096948;28;20077;-64
2022/10/15 00:13:58;;;;;;;83.38;43.63;;;8.20;99.90;;;;;;5096670;28;20036;-64
2022/10/15 00:16:27;;;;;;;88.15;45.10;;;8.20;99.90;;;;;;5096945;28;20024;-64
2022/10/15 00:18:57;;;;;;;81.05;43.05;;;8.20;99.90;;;;;;5096720;28;20028;-64
2022/10/15 00:21:23;;;;;;;89.47;44.22;;;8.10;99.90;;;;;;5096655;28;20020;-64
2022/10/15 00:23:50;;;;;;;72.93;40.85;;;8.00;99.90;;;;;;5096556;28;20052;-64
2022/10/15 00:26:21;;;;;;;76.07;40.55;;;8.00;99.90;;;;;;5096724;28;20020;-64
2022/10/15 00:28:49;;;;;;;69.88;38.63;;;7.90;99.90;;;;;;5078218;28;20047;-64
2022/10/15 00:31:19;;;;;;;72.95;37.60;;;7.90;99.90;;;;;;5096539;28;20454;-64
2022/10/15 00:33:48;;;;;;;68.70;36.42;;;7.90;99.90;;;;;;5078211;28;20043;-64
2022/10/15 00:36:18;;;;;;;62.17;35.10;;;7.90;99.90;;;;;;5078281;28;20031;-64
2022/10/15 00:38:44;;;;;;;73.55;37.72;;;7.80;99.90;;;;;;5096436;28;20024;-64
2022/10/15 00:41:29;;;;;;;81.13;38.40;;;7.90;99.90;;;;;;5096203;28;20024;-64
2022/10/15 00:44:21;;;;;;;87.57;43.13;;;7.80;99.90;;;;;;5096260;28;20497;-64
2022/10/15 00:46:50;;;;;;;75.55;35.50;;;7.80;99.90;;;;;;5040117;28;20123;-64
2022/10/15 00:49:50;;;;;;;73.03;36.85;;;7.80;99.90;;;;;;5077988;28;20039;-64
2022/10/15 00:52:20;;;;;;;67.70;36.38;;;7.70;99.90;;;;;;5096175;28;20028;-64
2022/10/15 00:54:51;;;;;;;75.90;37.03;;;7.70;99.90;;;;;;5077848;28;20062;-64
2022/10/15 00:57:16;;;;;;;;;;;7.70;99.90;;;;;;5096568;28;20028;-64
2022/10/15 00:59:49;;;;;;;86.45;38.42;;;7.90;99.90;;;;;;5095859;28;20286;-64
2022/10/15 01:02:18;;;;;;;98.53;44.15;;;7.80;99.90;;;;;;5095920;28;20032;-64
2022/10/15 01:04:46;;;;;;;102.57;44.70;;;7.90;99.90;;;;;;5077687;28;20054;-64
2022/10/15 01:07:12;;;;;;;96.05;42.80;;;8.00;99.90;;;;;;5096084;28;20039;-64
2022/10/15 01:09:41;;;;;;;90.15;40.25;;;7.90;99.90;;;;;;5077490;28;20481;-64
2022/10/15 01:12:19;;;;;;;87.30;42.00;;;7.80;99.90;;;;;;5077675;28;20493;-64
2022/10/15 01:15:05;;;;;;;73.15;37.25;;;7.70;99.90;;;;;;5095821;28;20052;-64
2022/10/15 01:17:54;;;;;;;72.05;36.97;;;7.70;99.90;;;;;;5094860;28;20044;-64
2022/10/15 01:20:32;;;;;;;73.88;36.92;;;7.70;99.90;;;;;;5077477;28;20031;-64
2022/10/15 01:23:25;;;;;;;66.03;32.03;;;7.60;99.90;;;;;;5073779;28;20051;-64
2022/10/15 01:26:13;;;;;;;62.03;32.28;;;7.50;99.90;;;;;;5074056;28;20169;-64
2022/10/15 01:28:58;;;;;;;60.95;32.13;;;7.50;99.90;;;;;;5075237;28;20095;-64
2022/10/15 01:31:28;;;;;;;53.92;31.20;;;7.50;99.90;;;;;;5073940;28;20394;-64
2022/10/15 01:34:24;;;;;;;70.13;34.70;;;7.50;99.90;;;;;;5075132;28;20382;-64
2022/10/15 01:37:01;;;;;;;70.63;33.75;;;7.50;99.90;;;;;;5066992;28;20047;-64
2022/10/15 01:39:38;;;;;;;67.00;33.70;;;7.50;99.90;;;;;;5073527;28;20453;-64
2022/10/15 01:42:27;;;;;;;59.72;32.05;;;7.50;99.90;;;;;;5073844;28;20029;-64
2022/10/15 01:45:01;;;;;;;52.40;28.27;;;7.50;99.90;;;;;;5068610;28;20043;-64
2022/10/15 01:47:59;;;;;;;58.97;30.20;;;7.50;99.90;;;;;;5051045;28;20041;-64
2022/10/15 01:50:29;;;;;;;61.90;32.58;;;7.50;99.90;;;;;;5056848;28;20257;-64
2022/10/15 01:52:57;;;;;;;58.97;32.97;;;7.30;99.90;;;;;;5056817;28;20047;-64
2022/10/15 01:55:25;;;;;;;60.38;30.98;;;7.20;99.90;;;;;;5074766;28;20028;-64
2022/10/15 01:57:53;;;;;;;52.58;30.23;;;7.20;99.90;;;;;;5056859;28;20024;-64
2022/10/15 02:00:19;;;;;;;63.92;28.95;;;7.20;99.90;;;;;;5056495;28;20086;-64
2022/10/15 02:02:45;;;;;;;68.60;32.97;;;7.20;99.90;;;;;;5074660;28;20017;-64
2022/10/15 02:05:26;;;;;;;62.15;30.25;;;7.50;99.90;;;;;;5056617;28;20440;-64
2022/10/15 02:08:17;;;;;;;57.22;29.67;;;7.40;99.90;;;;;;5056552;28;20060;-64
2022/10/15 02:11:02;;;;;;;52.08;27.60;;;7.30;99.90;;;;;;5074486;28;20055;-64
2022/10/15 02:13:37;;;;;;;51.38;26.95;;;7.30;99.90;;;;;;5074650;28;20042;-64
2022/10/15 02:16:32;;;;;;;52.42;28.30;;;7.30;99.90;;;;;;5056694;28;20037;-64
2022/10/15 02:19:12;;;;;;;48.42;25.40;;;7.30;99.90;;;;;;5074178;28;20025;-64
2022/10/15 02:21:47;;;;;;;47.88;26.88;;;7.30;99.90;;;;;;5073822;28;20024;-64
2022/10/15 02:24:26;;;;;;;46.97;26.38;;;7.20;99.90;;;;;;5072881;28;20052;-65
2022/10/15 02:26:55;;;;;;;49.40;27.30;;;7.10;99.90;;;;;;5074571;28;20146;-64
2022/10/15 02:29:25;;;;;;;49.30;26.67;;;7.00;99.90;;;;;;5072951;28;20025;-64
2022/10/15 02:31:55;;;;;;;48.50;25.75;;;6.90;99.90;;;;;;5073186;28;20087;-64
2022/10/15 02:34:26;;;;;;;49.95;26.85;;;7.00;99.90;;;;;;5073020;28;20067;-64
2022/10/15 02:36:53;;;;;;;45.75;25.88;;;6.80;99.90;;;;;;5074267;28;20032;-64
2022/10/15 02:39:23;;;;;;;48.08;27.60;;;6.70;99.90;;;;;;5072955;28;20386;-63
2022/10/15 02:41:50;;;;;;;48.75;27.42;;;6.70;99.90;;;;;;5072951;28;20020;-63
2022/10/15 02:44:16;;;;;;;51.65;27.85;;;6.70;99.90;;;;;;5072814;28;20047;-63
2022/10/15 02:46:42;;;;;;;47.80;27.13;;;6.70;99.90;;;;;;5074255;28;20107;-63
2022/10/15 02:49:09;;;;;;;47.33;25.98;;;6.70;99.90;;;;;;5056239;28;20052;-63
2022/10/15 02:51:36;;;;;;;45.03;24.30;;;6.70;99.90;;;;;;5056128;28;20095;-63
2022/10/15 02:54:04;;;;;;;45.67;24.80;;;6.80;99.90;;;;;;5074325;28;20116;-63
2022/10/15 02:56:30;;;;;;;46.50;25.92;;;6.80;99.90;;;;;;5055854;28;20079;-63
2022/10/15 02:58:56;;;;;;;38.42;22.73;;;6.80;99.90;;;;;;5055975;28;20094;-63
2022/10/15 03:01:22;;;;;;;42.95;22.88;;;7.00;99.90;;;;;;5056138;28;20029;-63
2022/10/15 03:03:48;;;;;;;40.65;23.90;;;7.00;99.90;;;;;;5055944;28;20398;-63
2022/10/15 03:06:14;;;;;;;47.47;23.90;;;7.00;99.90;;;;;;5056016;28;20028;-63
2022/10/15 03:08:41;;;;;;;38.13;23.00;;;7.00;99.90;;;;;;5055965;28;20029;-64
2022/10/15 03:11:09;;;;;;;38.80;22.70;;;7.00;99.90;;;;;;5055832;28;20116;-64
2022/10/15 03:13:37;;;;;;;49.47;25.23;;;6.90;99.90;;;;;;5056024;28;20043;-64
2022/10/15 03:16:10;;;;;;;45.97;24.13;;;6.80;99.90;;;;;;5056007;28;20036;-64
2022/10/15 03:18:37;;;;;;;45.15;24.45;;;6.70;99.90;;;;;;5055741;28;20495;-64
2022/10/15 03:21:04;;;;;;;45.00;24.27;;;6.60;99.90;;;;;;5072248;28;20111;-64
2022/10/15 03:23:30;;;;;;;44.15;24.63;;;6.60;99.90;;;;;;5087280;28;20044;-64
2022/10/15 03:26:11;;;;;;;;;;;6.60;99.90;;;;;;5076353;28;20081;-64
2022/10/15 03:28:37;;;;;;;44.47;24.85;;;6.60;99.90;;;;;;5076150;28;20411;-64
2022/10/15 03:31:03;;;;;;;49.80;25.05;;;6.70;99.90;;;;;;5075970;28;20024;-64
2022/10/15 03:33:29;;;;;;;44.42;24.05;;;6.80;99.90;;;;;;5078572;28;20024;-64
2022/10/15 03:35:56;;;;;;;35.92;22.23;;;6.90;99.90;;;;;;5079523;28;20032;-64
2022/10/15 03:38:22;;;;;;;43.28;23.05;;;6.90;99.90;;;;;;5079571;28;20443;-64
2022/10/15 03:40:50;;;;;;;38.28;22.85;;;6.80;99.90;;;;;;5079366;28;20028;-64
2022/10/15 03:43:27;;;;;;;45.72;23.88;;;6.80;99.90;;;;;;5097472;28;20028;-64
2022/10/15 03:45:53;;;;;;;45.63;24.52;;;6.70;99.90;;;;;;5079227;28;20047;-64
2022/10/15 03:48:22;;;;;;;50.72;25.58;;;6.70;99.90;;;;;;5079284;28;20085;-64
2022/10/15 03:50:48;;;;;;;53.33;26.13;;;6.60;99.90;;;;;;5079259;28;20044;-64
2022/10/15 03:53:14;;;;;;;52.80;27.73;;;6.70;99.90;;;;;;5079123;28;20060;-64
2022/10/15 03:55:41;;;;;;;45.30;26.85;;;6.70;99.90;;;;;;5078962;28;20386;-64
2022/10/15 03:58:07;;;;;;;49.45;26.83;;;6.70;99.90;;;;;;5079129;28;20031;-64
2022/10/15 04:00:42;;;;;;;52.70;28.55;;;6.60;99.90;;;;;;5078778;28;20024;-64
2022/10/15 04:03:10;;;;;;;49.70;27.02;;;6.60;99.90;;;;;;5078981;28;20024;-64
2022/10/15 04:05:36;;;;;;;51.13;28.10;;;6.60;99.90;;;;;;5078816;28;20062;-64
2022/10/15 04:08:06;;;;;;;51.13;27.85;;;6.70;99.90;;;;;;5078891;28;20244;-64
2022/10/15 04:10:36;;;;;;;51.28;29.27;;;6.80;99.90;;;;;;5078913;28;20028;-64
2022/10/15 04:13:03;;;;;;;49.00;27.20;;;6.70;99.90;;;;;;5096892;28;20069;-64
2022/10/15 04:15:31;;;;;;;50.08;26.17;;;6.50;99.90;;;;;;5078672;28;20534;-64
2022/10/15 04:18:02;;;;;;;49.85;26.98;;;6.50;99.90;;;;;;5078859;28;20055;-64
2022/10/15 04:20:29;;;;;;;51.67;28.15;;;6.50;99.90;;;;;;5078327;28;20489;-64
2022/10/15 04:23:08;;;;;;;47.65;27.17;;;6.50;99.90;;;;;;5074947;28;20045;-64
2022/10/15 04:25:36;;;;;;;54.40;28.83;;;6.60;99.90;;;;;;5075067;28;20436;-64
2022/10/15 04:28:02;;;;;;;54.63;26.55;;;6.60;99.90;;;;;;5075264;28;20033;-64
2022/10/15 04:30:30;;;;;;;48.05;25.80;;;6.60;99.90;;;;;;5075079;28;20505;-64
2022/10/15 04:32:58;;;;;;;48.90;28.08;;;6.50;99.90;;;;;;5074966;28;20070;-64
2022/10/15 04:35:24;;;;;;;45.03;25.02;;;6.60;99.90;;;;;;5075050;28;20103;-64
2022/10/15 04:38:10;;;;;;;44.88;24.92;;;6.80;99.90;;;;;;5075737;28;20132;-64
2022/10/15 04:41:00;;;;;;;54.25;26.67;;;6.90;99.90;;;;;;5074917;28;20037;-64
2022/10/15 04:43:32;;;;;;;49.25;25.70;;;6.90;99.90;;;;;;5074262;28;20029;-64
2022/10/15 04:46:04;;;;;;;49.45;25.98;;;6.80;99.90;;;;;;5060287;28;20032;-63
2022/10/15 04:48:33;;;;;;;48.35;28.52;;;6.80;99.90;;;;;;5057940;28;20429;-63
2022/10/15 04:51:14;;;;;;;50.13;23.65;;;6.60;99.90;;;;;;5057811;28;20028;-63
2022/10/15 04:54:08;;;;;;;42.55;22.80;;;6.70;99.90;;;;;;5057966;28;20111;-63
2022/10/15 04:56:37;;;;;;;41.10;23.23;;;6.70;99.90;;;;;;5057807;28;20032;-63
2022/10/15 04:59:06;;;;;;;46.30;23.95;;;6.60;99.90;;;;;;5057749;28;20028;-63
2022/10/15 05:01:37;;;;;;;40.05;22.48;;;6.60;99.90;;;;;;5057654;28;20437;-63
2022/10/15 05:04:11;;;;;;;45.38;24.52;;;6.60;99.90;;;;;;5057585;28;20453;-63
2022/10/15 05:06:39;;;;;;;49.70;24.80;;;6.60;99.90;;;;;;5057675;28;20032;-64
2022/10/15 05:09:17;;;;;;;50.28;23.80;;;6.60;99.90;;;;;;5057536;28;20075;-64
2022/10/15 05:11:48;;;;;;;50.60;24.10;;;6.70;99.90;;;;;;5057375;28;20502;-64
2022/10/15 05:14:14;;;;;;;44.03;24.20;;;6.60;99.90;;;;;;5057486;28;20039;-64
2022/10/15 05:16:40;;;;;;;46.30;23.52;;;6.60;99.90;;;;;;5057421;28;20554;-64
2022/10/15 05:19:07;;;;;;;53.97;28.17;;;6.50;99.90;;;;;;5057404;28;20029;-64
2022/10/15 05:21:36;;;;;;;70.75;37.33;;;6.50;99.90;;;;;;5073986;28;20033;-64
2022/10/15 05:24:09;;;;;;;58.75;33.53;;;6.50;99.90;;;;;;5073889;28;20056;-64
2022/10/15 05:26:57;;;;;;;47.38;27.08;;;6.90;99.90;;;;;;5074987;28;20154;-64
2022/10/15 05:29:27;;;;;;;43.33;23.42;;;7.40;99.90;;;;;;5073893;28;20028;-64
2022/10/15 05:31:53;;;;;;;42.80;22.10;;;7.70;99.90;;;;;;5073829;28;20028;-64
2022/10/15 05:34:27;;;;;;;45.90;22.75;;;8.40;99.90;;;;;;5073712;28;20028;-64
2022/10/15 05:37:00;;;;;;;48.38;24.60;;;8.90;99.90;;;;;;5073678;28;20064;-64
2022/10/15 05:39:26;;;;;;;51.45;25.83;;;9.60;99.90;;;;;;5073699;28;20059;-64
2022/10/15 05:41:53;;;;;;;58.20;32.78;;;10.10;99.90;;;;;;5073572;28;20470;-64
2022/10/15 05:44:27;;;;;;;64.53;30.90;;;10.30;99.90;;;;;;5074894;28;20062;-64
2022/10/15 05:46:53;;;;;;;69.18;30.67;;;10.60;99.90;;;;;;5056914;28;20432;-64
2022/10/15 05:49:22;;;;;;;61.10;28.15;;;10.90;99.90;;;;;;5056836;28;20024;-64
2022/10/15 05:52:04;;;;;;;56.33;28.08;;;11.50;99.90;;;;;;5056933;28;20485;-64
2022/10/15 05:54:52;;;;;;;64.78;27.20;;;11.90;99.90;;;;;;5056611;28;20029;-64
2022/10/15 05:57:18;;;;;;;57.80;27.08;;;12.10;99.90;;;;;;5074175;28;20108;-65
2022/10/15 05:59:44;;;;;;;73.80;28.80;;;11.80;99.90;;;;;;5074667;28;20028;-64
2022/10/15 06:02:14;;;;;;;71.53;26.63;;;11.70;99.90;;;;;;5074565;28;20044;-64
2022/10/15 06:04:41;;;;;;;50.00;25.20;;;12.00;99.90;;;;;;5074665;28;20527;-64
2022/10/15 06:07:07;;;;;;;53.00;26.13;;;12.10;99.90;;;;;;5074640;28;20462;-64
2022/10/15 06:09:33;;;;;;;55.25;27.00;;;12.30;99.90;;;;;;5074528;28;20170;-64
2022/10/15 06:11:59;;;;;;;59.20;26.98;;;11.30;99.90;;;;;;5074543;28;20385;-65
2022/10/15 06:14:25;;;;;;;60.22;26.73;;;12.20;99.90;;;;;;5074506;28;20031;-65
2022/10/15 06:16:53;;;;;;;48.08;25.80;;;12.20;99.90;;;;;;5074521;28;20104;-65
2022/10/15 06:19:19;;;;;;;57.67;26.23;;;12.00;99.90;;;;;;5074380;28;20056;-65
2022/10/15 06:21:45;;;;;;;61.13;28.88;;;11.80;99.90;;;;;;5074498;28;20099;-65
2022/10/15 06:24:11;;;;;;;50.30;26.60;;;11.30;99.90;;;;;;5093544;28;20123;-65
2022/10/15 06:26:37;;;;;;;52.05;25.98;;;11.10;99.90;;;;;;5094582;28;20028;-65
2022/10/15 06:29:03;;;;;;;55.88;25.40;;;11.60;99.90;;;;;;5094559;28;20394;-65
2022/10/15 06:31:30;;;;;;;54.47;26.90;;;12.30;99.90;;;;;;5094496;28;20066;-65
2022/10/15 06:33:56;;;;;;;57.90;27.25;;;11.70;99.90;;;;;;5094660;28;20132;-65
2022/10/15 06:36:24;;;;;;;49.03;25.38;;;12.10;99.90;;;;;;5094408;28;20111;-65
2022/10/15 06:38:50;;;;;;;68.60;27.52;;;12.40;99.90;;;;;;5094731;28;20035;-65
2022/10/15 06:41:16;;;;;;;54.75;26.60;;;12.30;99.90;;;;;;5094471;28;20024;-65
2022/10/15 06:43:43;;;;;;;62.70;27.77;;;12.80;99.90;;;;;;5094275;28;20031;-65
2022/10/15 06:46:09;;;;;;;80.30;31.40;;;12.90;99.90;;;;;;5094410;28;20081;-65
2022/10/15 06:48:35;;;;;;;68.03;32.30;;;13.30;99.90;;;;;;5094318;28;20024;-65
2022/10/15 06:51:02;;;;;;;83.70;34.20;;;13.30;99.90;;;;;;5094326;28;20031;-65
2022/10/15 06:53:29;;;;;;;71.53;35.95;;;13.90;98.60;;;;;;5094280;28;20056;-65
2022/10/15 06:56:00;;;;;;;78.00;37.25;;;14.60;97.40;;;;;;5094313;28;20035;-65
2022/10/15 06:58:26;;;;;;;68.32;36.78;;;14.70;95.10;;;;;;5094240;28;20035;-65
2022/10/15 07:00:52;;;;;;;70.05;36.75;;;14.90;95.10;;;;;;5094230;28;20028;-65
2022/10/15 07:03:18;;;;;;;61.45;35.75;;;15.40;94.20;;;;;;5094466;28;20032;-65
2022/10/15 07:05:44;;;;;;;63.20;36.05;;;15.80;92.80;;;;;;5094116;28;20020;-66
2022/10/15 07:08:10;;;;;;;67.63;37.28;;;16.00;91.40;;;;;;5096806;28;20553;-66
2022/10/15 07:10:36;;;;;;;66.97;32.65;;;16.10;90.10;;;;;;5098121;28;20067;-66
2022/10/15 07:13:02;;;;;;;49.28;30.27;;;16.20;90.30;;;;;;5079679;28;20024;-67
2022/10/15 07:15:28;;;;;;;40.35;25.10;;;16.10;90.20;;;;;;5098046;28;20482;-66
2022/10/15 07:17:56;;;;;;;35.75;22.70;;;16.20;90.50;;;;;;5098066;28;20020;-66
2022/10/15 07:20:23;;;;;;;48.08;26.33;;;16.30;91.20;;;;;;5097684;28;20028;-66
2022/10/15 07:22:48;;;;;;;56.60;25.08;;;16.30;87.70;;;;;;5097982;28;20036;-66
2022/10/15 07:25:14;;;;;;;47.13;25.40;;;16.10;91.80;;;;;;5097675;28;20035;-66
2022/10/15 07:27:41;;;;;;;47.05;25.08;;;16.40;91.10;;;;;;5097839;28;20084;-66
2022/10/15 07:30:08;;;;;;;40.60;23.27;;;16.60;90.40;;;;;;5097853;28;20111;-66
2022/10/15 07:32:34;;;;;;;44.50;23.10;;;16.90;89.00;;;;;;5097850;28;20036;-66
2022/10/15 07:35:00;;;;;;;46.72;23.52;;;17.00;89.00;;;;;;5097645;28;20393;-66
2022/10/15 07:37:26;;;;;;;43.58;23.17;;;17.30;87.90;;;;;;5097550;28;20047;-66
2022/10/15 07:39:52;;;;;;;43.72;23.67;;;17.60;85.70;;;;;;5097584;28;20421;-66
2022/10/15 07:42:19;;;;;;;37.80;21.20;;;17.80;85.90;;;;;;5097529;28;20085;-66
2022/10/15 07:44:45;;;;;;;42.15;21.73;;;17.60;84.40;;;;;;5097441;28;20107;-66
2022/10/15 07:47:13;;;;;;;34.35;20.83;;;17.40;85.00;;;;;;5097416;28;20152;-66
2022/10/15 07:49:39;;;;;;;40.40;20.88;;;17.90;83.50;;;;;;5097406;28;20041;-66
2022/10/15 07:52:07;;;;;;;29.60;18.75;;;18.20;82.50;;;;;;5097389;28;20089;-66
2022/10/15 07:54:33;;;;;;;36.85;21.00;;;18.50;81.60;;;;;;5097216;28;20509;-66
2022/10/15 07:56:59;;;;;;;45.60;22.35;;;18.50;83.30;;;;;;5097306;28;20366;-66
2022/10/15 07:59:25;;;;;;;38.47;23.45;;;19.20;80.60;;;;;;5097199;28;20020;-66
2022/10/15 08:01:51;;;;;;;52.25;26.90;;;19.10;80.50;;;;;;5097229;28;20024;-66
2022/10/15 08:04:19;;;;;;;45.90;24.70;;;18.90;79.90;;;;;;5097090;28;20020;-66
2022/10/15 08:06:48;;;;;;;54.70;28.13;;;18.90;78.50;;;;;;5097140;28;20036;-67
2022/10/15 08:09:15;;;;;;;51.88;28.45;;;19.40;78.60;;;;;;5097057;28;20059;-66
2022/10/15 08:11:40;;;;;;;45.50;26.17;;;19.80;78.00;;;;;;5097012;28;20059;-67
2022/10/15 08:14:09;;;;;;;57.25;27.77;;;19.50;77.20;;;;;;5097011;28;20078;-66
2022/10/15 08:16:35;;;;;;;66.18;28.15;;;20.30;75.90;;;;;;5096880;28;20025;-66
2022/10/15 08:19:01;;;;;;;46.03;27.30;;;20.60;74.20;;;;;;5095742;28;20032;-66
2022/10/15 08:21:27;;;;;;;53.50;27.08;;;20.50;72.60;;;;;;5096668;28;20027;-66
2022/10/15 08:23:53;;;;;;;44.85;24.42;;;20.60;73.40;;;;;;5096560;28;20036;-67
2022/10/15 08:26:28;;;;;;;51.03;26.92;;;21.10;70.70;;;;;;5096711;28;20028;-67
2022/10/15 08:28:54;;;;;;;46.42;24.83;;;21.10;70.60;;;;;;5096674;28;20046;-67
2022/10/15 08:31:21;;;;;;;42.95;24.77;;;21.30;69.10;;;;;;5096582;28;20567;-67
2022/10/15 08:33:47;;;;;;;34.90;21.50;;;21.50;69.20;;;;;;5096443;28;20020;-67
2022/10/15 08:36:13;;;;;;;44.53;22.50;;;21.80;67.50;;;;;;5096512;28;20149;-67
2022/10/15 08:38:39;;;;;;;36.17;21.58;;;21.00;68.40;;;;;;5096392;28;20032;-67
2022/10/15 08:41:21;;;;;;;37.35;21.13;;;21.50;68.10;;;;;;5096491;28;20089;-67
2022/10/15 08:43:48;;;;;;;33.20;20.13;;;22.00;70.20;;;;;;5096377;28;20576;-67
2022/10/15 08:46:41;;;;;;;37.97;18.52;;;22.10;66.20;;;;;;5096207;28;20031;-67
2022/10/15 08:49:19;;;;;;;34.03;19.80;;;22.40;64.60;;;;;;5096241;28;20059;-67
2022/10/15 08:51:52;;;;;;;35.17;19.65;;;22.70;63.40;;;;;;5096275;28;20034;-67
2022/10/15 08:54:19;;;;;;;30.55;20.05;;;22.30;63.10;;;;;;5096107;28;20089;-67
2022/10/15 08:56:50;;;;;;;29.73;19.38;;;22.10;64.30;;;;;;5096040;28;20449;-67
2022/10/15 08:59:25;;;;;;;35.08;20.02;;;22.60;63.00;;;;;;5095969;28;20039;-67
2022/10/15 09:02:19;;;;;;;30.45;19.25;;;22.60;63.50;;;;;;5096108;28;20102;-67
2022/10/15 09:05:13;;;;;;;35.65;19.92;;;22.90;63.00;;;;;;5059065;28;20119;-67
2022/10/15 09:07:43;;;;;;;30.33;19.13;;;23.20;63.20;;;;;;5095986;28;20051;-67
2022/10/15 09:10:40;;;;;;;34.72;20.23;;;23.60;63.30;;;;;;5095855;28;20028;-67
2022/10/15 09:13:27;;;;;;;37.60;21.30;;;24.00;61.30;;;;;;5095877;28;20101;-67
2022/10/15 09:16:17;;;;;;;41.45;22.95;;;23.80;60.80;;;;;;5095863;28;20098;-67
2022/10/15 09:18:51;;;;;;;31.45;22.25;;;23.40;61.90;;;;;;5083474;28;20055;-68
2022/10/15 09:21:18;;;;;;;41.40;23.67;;;23.60;61.60;;;;;;5095643;28;20090;-67
2022/10/15 09:23:44;;;;;;;41.38;25.48;;;24.10;60.00;;;;;;5095341;28;20050;-67
2022/10/15 09:26:44;;;;;;;39.97;24.10;;;23.40;61.20;;;;;;5095517;28;20076;-67
2022/10/15 09:29:32;;;;;;;38.22;23.92;;;24.10;59.90;;;;;;5095406;28;20032;-67
2022/10/15 09:32:19;;;;;;;40.42;23.08;;;24.40;58.70;;;;;;5095504;28;20071;-67
2022/10/15 09:35:00;;;;;;;31.13;21.48;;;24.50;59.30;;;;;;5095424;28;20032;-67
2022/10/15 09:37:49;;;;;;;41.70;21.73;;;25.00;58.70;;;;;;5095589;28;20483;-67
2022/10/15 09:40:34;;;;;;;29.88;19.95;;;25.30;58.30;;;;;;5095325;28;20040;-67
2022/10/15 09:43:01;;;;;;;28.90;19.85;;;25.40;57.30;;;;;;5095175;28;20031;-67
2022/10/15 09:45:27;;;;;;;37.22;21.98;;;25.70;58.20;;;;;;5095175;28;20027;-67
2022/10/15 09:47:59;;;;;;;33.50;20.30;;;25.90;54.30;;;;;;5095527;28;20020;-67
2022/10/15 09:50:40;;;;;;;32.30;21.25;;;25.60;55.60;;;;;;5095100;28;20367;-67
2022/10/15 09:53:40;;;;;;;33.35;20.58;;;26.10;56.40;;;;;;5094993;28;20032;-67
2022/10/15 09:56:12;;;;;;;;;;;26.60;54.20;;;;;;5095399;28;20063;-67
2022/10/15 09:58:51;;;;;;;31.35;17.73;;;26.80;51.20;;;;;;5095002;28;19953;-67
2022/10/15 10:01:23;;;;;;;29.48;18.25;;;27.30;50.20;;;;;;5094854;28;20028;-67
2022/10/15 10:04:13;;;;;;;27.08;13.55;;;27.20;50.50;;;;;;5094891;28;20051;-68
2022/10/15 10:06:57;;;;;;;31.80;19.08;;;27.30;47.50;;;;;;5080951;28;20123;-67
2022/10/15 10:09:34;;;;;;;22.02;13.27;;;27.70;49.80;;;;;;5094850;28;20031;-68
2022/10/15 10:12:06;;;;;;;35.53;14.88;;;27.60;49.00;;;;;;5094740;28;20038;-67
2022/10/15 10:14:51;;;;;;;20.60;11.20;;;28.40;46.80;;;;;;5094755;28;20024;-67
2022/10/15 10:17:23;;;;;;;12.65;7.20;;;28.30;42.20;;;;;;5094738;28;20028;-68
2022/10/15 10:20:18;;;;;;;9.73;5.90;;;28.10;42.80;;;;;;5094629;28;20028;-67
2022/10/15 10:22:51;;;;;;;21.20;7.30;;;26.80;40.10;;;;;;5094480;28;20036;-67
2022/10/15 10:25:26;;;;;;;8.05;4.13;;;26.60;40.50;;;;;;5094659;28;20499;-68
2022/10/15 10:27:56;;;;;;;9.30;4.15;;;26.90;42.00;;;;;;5094668;28;20024;-68
2022/10/15 10:30:26;;;;;;;10.27;4.13;;;27.60;43.00;;;;;;5094571;28;20430;-68
2022/10/15 10:32:58;;;;;;;14.82;4.10;;;26.40;39.20;;;;;;5094544;28;20397;-68
2022/10/15 10:35:27;;;;;;;12.45;4.60;;;25.50;42.60;;;;;;5094592;28;20059;-68
2022/10/15 10:37:53;;;;;;;8.35;3.70;;;26.90;43.00;;;;;;5094564;28;20028;-68
2022/10/15 10:40:34;;;;;;;8.75;3.35;;;26.20;40.20;;;;;;5094485;28;20105;-68
2022/10/15 10:43:22;;;;;;;11.43;4.75;;;26.30;39.40;;;;;;5097113;28;20021;-68
2022/10/15 10:46:00;;;;;;;9.65;4.20;;;27.00;42.10;;;;;;5098520;28;20063;-67
2022/10/15 10:48:36;;;;;;;4.43;3.10;;;27.70;40.80;;;;;;5098601;28;20028;-68
2022/10/15 10:51:08;;;;;;;16.45;5.35;;;26.60;41.60;;;;;;5098548;28;20057;-67
2022/10/15 10:53:45;;;;;;;5.60;3.67;;;27.10;38.80;;;;;;5098407;28;20028;-68
2022/10/15 10:56:12;;;;;;;17.20;5.88;;;26.80;38.60;;;;;;5098460;28;20028;-68
2022/10/15 10:58:38;;;;;;;17.95;5.88;;;26.20;42.10;;;;;;5098394;28;20110;-68
2022/10/15 11:01:04;;;;;;;8.02;4.65;;;26.20;42.30;;;;;;5098183;28;20113;-68
2022/10/15 11:03:42;;;;;;;7.90;3.75;;;26.30;40.30;;;;;;5098210;28;20020;-68
2022/10/15 11:06:31;;;;;;;12.00;4.90;;;26.70;40.50;;;;;;5098141;28;20032;-67
2022/10/15 11:09:15;;;;;;;7.70;4.53;;;27.50;40.50;;;;;;5098210;28;20063;-67
2022/10/15 11:11:57;;;;;;;10.32;4.82;;;27.90;39.90;;;;;;5098003;28;20043;-68
2022/10/15 11:14:57;;;;;;;6.03;3.60;;;28.40;39.80;;;;;;5097966;28;20141;-67
2022/10/15 11:17:47;;;;;;;7.18;3.95;;;28.50;40.30;;;;;;5098135;28;20051;-68
2022/10/15 11:20:39;;;;;;;7.40;3.95;;;28.70;35.90;;;;;;5097877;28;20437;-68
2022/10/15 11:23:23;;;;;;;5.30;3.08;;;28.30;37.10;;;;;;5097737;28;20075;-67
2022/10/15 11:26:22;;;;;;;6.00;3.10;;;28.10;36.50;;;;;;5097828;28;20020;-67
2022/10/15 11:29:11;;;;;;;8.93;2.83;;;27.70;37.10;;;;;;5097753;28;20028;-67
2022/10/15 11:31:52;;;;;;;9.98;3.55;;;27.40;35.40;;;;;;5097769;28;20028;-67
2022/10/15 11:34:56;;;;;;;4.22;2.90;;;27.90;37.20;;;;;;5097540;28;20035;-67
2022/10/15 11:37:46;;;;;;;12.48;4.32;;;27.80;36.60;;;;;;5097525;28;20119;-67
2022/10/15 11:40:20;;;;;;;14.07;5.15;;;28.90;36.10;;;;;;5097643;28;20029;-67
2022/10/15 11:43:00;;;;;;;7.47;4.40;;;28.20;37.30;;;;;;5097446;28;20099;-68
2022/10/15 11:45:51;;;;;;;5.53;3.20;;;28.00;36.00;;;;;;5097400;28;20116;-67
2022/10/15 11:48:29;;;;;;;17.65;6.85;;;28.90;37.20;;;;;;5097412;28;20478;-67
2022/10/15 11:51:13;;;;;;;6.57;3.60;;;29.10;36.40;;;;;;5097218;28;20032;-67
2022/10/15 11:54:18;;;;;;;9.32;4.10;;;29.30;36.60;;;;;;5095968;28;20074;-67
2022/10/15 11:56:51;;;;;;;11.35;3.60;;;29.40;36.60;;;;;;5097218;28;20114;-67
2022/10/15 11:59:35;;;;;;;5.60;3.55;;;29.40;36.10;;;;;;5097182;28;20046;-67
2022/10/15 12:02:22;;;;;;;6.07;3.50;;;29.50;37.60;;;;;;5097107;28;20077;-67
2022/10/15 12:04:55;;;;;;;9.07;4.50;;;29.10;36.60;;;;;;5097125;28;20513;-67
2022/10/15 12:07:27;;;;;;;7.32;4.20;;;29.30;34.60;;;;;;5097164;28;20024;-67
2022/10/15 12:10:04;;;;;;;5.72;4.03;;;29.20;35.90;;;;;;5078952;28;20039;-67
2022/10/15 12:12:36;;;;;;;10.82;4.40;;;29.20;34.90;;;;;;5096842;28;20125;-67
2022/10/15 12:15:12;;;;;;;7.30;3.40;;;28.60;35.60;;;;;;5097072;28;20028;-67
2022/10/15 12:18:06;;;;;;;7.68;3.83;;;27.90;35.30;;;;;;5096851;28;20055;-67
2022/10/15 12:20:32;;;;;;;5.80;2.90;;;27.20;36.60;;;;;;5096739;28;20031;-67
2022/10/15 12:23:00;;;;;;;7.05;3.60;;;28.00;36.00;;;;;;5096649;28;20581;-67
2022/10/15 12:25:35;;;;;;;5.85;2.78;;;28.10;34.50;;;;;;5096670;28;20024;-67
2022/10/15 12:28:22;;;;;;;7.13;3.78;;;27.40;34.50;;;;;;5096425;28;20028;-67
2022/10/15 12:31:02;;;;;;;8.05;3.97;;;27.30;35.70;;;;;;5096721;28;20397;-67
2022/10/15 12:33:31;;;;;;;;;;;28.40;36.60;;;;;;5096700;28;20032;-67
2022/10/15 12:36:01;;;;;;;8.98;3.42;;;27.30;35.00;;;;;;5096617;28;19919;-67
2022/10/15 12:38:29;;;;;;;10.25;4.32;;;27.60;37.50;;;;;;5096404;28;20032;-67
2022/10/15 12:41:03;;;;;;;5.32;3.55;;;28.10;37.50;;;;;;5096347;28;20039;-67
2022/10/15 12:43:34;;;;;;;4.35;3.15;;;27.70;34.70;;;;;;5096493;28;20028;-67
2022/10/15 12:46:03;;;;;;;14.00;4.43;;;27.90;34.40;;;;;;5096184;28;20016;-67
2022/10/15 12:48:40;;;;;;;12.13;4.97;;;28.30;37.70;;;;;;5096347;28;20028;-67
2022/10/15 12:51:21;;;;;;;7.03;3.92;;;28.20;36.40;;;;;;5096297;28;20056;-67
2022/10/15 12:53:49;;;;;;;7.70;4.22;;;28.90;36.80;;;;;;5096096;28;20035;-67
2022/10/15 12:56:15;;;;;;;5.25;3.47;;;29.00;37.50;;;;;;5096013;28;20085;-67
2022/10/15 12:58:42;;;;;;;5.05;3.63;;;29.00;35.60;;;;;;5096097;28;20031;-67
2022/10/15 13:01:14;;;;;;;8.48;3.90;;;29.30;36.30;;;;;;5095993;28;20438;-67
2022/10/15 13:04:02;;;;;;;4.70;3.45;;;29.60;36.70;;;;;;5095931;28;20024;-67
2022/10/15 13:06:35;;;;;;;11.52;4.90;;;29.30;33.50;;;;;;5095109;28;20064;-67